Terminal Aerodrome Forecast
Issued by NWS

Home | Current Version | Previous Version | Text Only | Print | Product List | Glossary On
Versions: 1 2 3 4 5 6 7 8 9 10 11 12 13
158
FTUS43 KSGF 131120
TAFBBG
TAF
KBBG 131120Z 1312/1412 VRB04KT P6SM OVC100
     FM131400 09006KT P6SM OVC100
     FM131900 13010KT P6SM OVC100
     FM140700 14012KT P6SM OVC050=

USA.gov is the U.S. government's official web portal to all federal, state and local government web resources and services.